DAUU/OGX METAR and TAF weather

Enter ICAO airport designator
Station Type Date Time Source
DAUU METAR 2022/08/12 14:00 UTC NOAA

DAUU 121400Z 05008KT CAVOK 42/10 Q1010


Station Type Date Time Source
DAUU Decoded METAR 2022/08/12 14:00 UTC NOAA

Ouargla, Algeria (DAUU) 31-55N 005-24E 141M
Aug 12, 2022 - 10:00 AM EDT / 2022.08.12 1400 UTC
Wind: from the NE (050 degrees) at 9 MPH (8 KT):0
Visibility: greater than 7 mile(s):0
Temperature: 107 F (42 C)
Dew Point: 50 F (10 C)
Relative Humidity: 14%
Pressure (altimeter): 29.83 in. Hg (1010 hPa)
ob: DAUU 121400Z 05008KT CAVOK 42/10 Q1010
cycle: 14

Station Type Date Time Source
DAUU TAF 2017/11/09 18:03 UTC NOAA

TAF DAUU 091700Z 0918/1009 34012KT 9999 FEW040 SCT100 PROB40
TEMPO 0918/0924 34015G25KT 5000 -TSRA FEW036CB

Example: see airport list